sensor_id;sensor_type;location;lat;lon;timestamp;P1;durP1;ratioP1;P2;durP2;ratioP2
7939;SDS011;4015;48.888;9.226;2023-11-19T00:02:20;3.50;;;3.00;;
7939;SDS011;4015;48.888;9.226;2023-11-19T00:04:47;4.20;;;3.03;;
7939;SDS011;4015;48.888;9.226;2023-11-19T00:07:12;3.10;;;2.80;;
7939;SDS011;4015;48.888;9.226;2023-11-19T00:09:39;3.40;;;2.90;;
7939;SDS011;4015;48.888;9.226;2023-11-19T00:12:04;6.43;;;2.37;;
7939;SDS011;4015;48.888;9.226;2023-11-19T00:14:31;3.17;;;2.60;;
7939;SDS011;4015;48.888;9.226;2023-11-19T00:16:56;5.27;;;3.00;;
7939;SDS011;4015;48.888;9.226;2023-11-19T00:19:22;5.87;;;2.57;;
7939;SDS011;4015;48.888;9.226;2023-11-19T00:21:47;3.93;;;3.10;;
7939;SDS011;4015;48.888;9.226;2023-11-19T00:24:13;2.70;;;2.50;;
7939;SDS011;4015;48.888;9.226;2023-11-19T00:26:41;4.00;;;2.80;;
7939;SDS011;4015;48.888;9.226;2023-11-19T00:29:06;4.33;;;3.07;;
7939;SDS011;4015;48.888;9.226;2023-11-19T00:31:32;3.03;;;2.50;;
7939;SDS011;4015;48.888;9.226;2023-11-19T00:33:57;3.03;;;2.50;;
7939;SDS011;4015;48.888;9.226;2023-11-19T00:36:23;4.13;;;2.27;;
7939;SDS011;4015;48.888;9.226;2023-11-19T00:38:49;3.73;;;2.80;;
7939;SDS011;4015;48.888;9.226;2023-11-19T00:41:14;2.70;;;2.50;;
7939;SDS011;4015;48.888;9.226;2023-11-19T00:43:41;4.63;;;2.90;;
7939;SDS011;4015;48.888;9.226;2023-11-19T00:46:07;3.53;;;3.23;;
7939;SDS011;4015;48.888;9.226;2023-11-19T00:48:32;3.23;;;2.80;;
7939;SDS011;4015;48.888;9.226;2023-11-19T00:50:58;4.07;;;3.00;;
7939;SDS011;4015;48.888;9.226;2023-11-19T00:53:23;3.60;;;3.17;;
7939;SDS011;4015;48.888;9.226;2023-11-19T00:55:48;4.20;;;3.27;;
7939;SDS011;4015;48.888;9.226;2023-11-19T00:58:14;4.10;;;3.50;;
7939;SDS011;4015;48.888;9.226;2023-11-19T01:00:39;4.77;;;3.43;;
7939;SDS011;4015;48.888;9.226;2023-11-19T01:03:05;7.20;;;3.07;;
7939;SDS011;4015;48.888;9.226;2023-11-19T01:05:32;4.97;;;3.90;;
7939;SDS011;4015;48.888;9.226;2023-11-19T01:07:57;3.60;;;3.00;;
7939;SDS011;4015;48.888;9.226;2023-11-19T01:10:23;4.53;;;3.07;;
7939;SDS011;4015;48.888;9.226;2023-11-19T01:12:49;4.57;;;3.30;;
7939;SDS011;4015;48.888;9.226;2023-11-19T01:15:14;4.90;;;4.03;;
7939;SDS011;4015;48.888;9.226;2023-11-19T01:17:40;6.97;;;4.30;;
7939;SDS011;4015;48.888;9.226;2023-11-19T01:20:05;4.00;;;3.30;;
7939;SDS011;4015;48.888;9.226;2023-11-19T01:22:32;3.80;;;3.10;;
7939;SDS011;4015;48.888;9.226;2023-11-19T01:24:57;6.40;;;3.30;;
7939;SDS011;4015;48.888;9.226;2023-11-19T01:27:23;7.90;;;3.53;;
7939;SDS011;4015;48.888;9.226;2023-11-19T01:29:49;3.60;;;3.30;;
7939;SDS011;4015;48.888;9.226;2023-11-19T01:32:15;4.13;;;3.50;;
7939;SDS011;4015;48.888;9.226;2023-11-19T01:34:40;4.67;;;3.30;;
7939;SDS011;4015;48.888;9.226;2023-11-19T01:37:06;4.50;;;3.27;;
7939;SDS011;4015;48.888;9.226;2023-11-19T01:39:31;3.30;;;3.00;;
7939;SDS011;4015;48.888;9.226;2023-11-19T01:41:56;5.33;;;2.97;;
7939;SDS011;4015;48.888;9.226;2023-11-19T01:44:22;3.23;;;2.93;;
7939;SDS011;4015;48.888;9.226;2023-11-19T01:46:47;4.70;;;3.43;;
7939;SDS011;4015;48.888;9.226;2023-11-19T01:49:17;5.53;;;3.03;;
7939;SDS011;4015;48.888;9.226;2023-11-19T01:51:44;4.77;;;3.20;;
7939;SDS011;4015;48.888;9.226;2023-11-19T01:54:10;3.40;;;2.77;;
7939;SDS011;4015;48.888;9.226;2023-11-19T01:56:37;3.53;;;3.23;;
7939;SDS011;4015;48.888;9.226;2023-11-19T01:59:08;3.10;;;2.80;;
7939;SDS011;4015;48.888;9.226;2023-11-19T02:01:36;2.57;;;2.37;;
7939;SDS011;4015;48.888;9.226;2023-11-19T02:04:04;2.87;;;2.60;;
7939;SDS011;4015;48.888;9.226;2023-11-19T02:06:34;2.90;;;2.70;;
7939;SDS011;4015;48.888;9.226;2023-11-19T02:09:00;3.13;;;2.13;;
7939;SDS011;4015;48.888;9.226;2023-11-19T02:11:26;1.90;;;1.70;;
7939;SDS011;4015;48.888;9.226;2023-11-19T02:13:54;2.40;;;1.80;;
7939;SDS011;4015;48.888;9.226;2023-11-19T02:16:21;2.30;;;1.80;;
7939;SDS011;4015;48.888;9.226;2023-11-19T02:18:46;1.70;;;1.60;;
7939;SDS011;4015;48.888;9.226;2023-11-19T02:21:12;1.73;;;1.43;;
7939;SDS011;4015;48.888;9.226;2023-11-19T02:23:39;1.60;;;1.40;;
7939;SDS011;4015;48.888;9.226;2023-11-19T02:26:18;2.07;;;1.40;;
7939;SDS011;4015;48.888;9.226;2023-11-19T02:28:51;2.13;;;1.90;;
7939;SDS011;4015;48.888;9.226;2023-11-19T02:31:17;3.37;;;2.00;;
7939;SDS011;4015;48.888;9.226;2023-11-19T02:37:09;2.33;;;2.13;;
7939;SDS011;4015;48.888;9.226;2023-11-19T02:43:03;3.00;;;2.70;;
7939;SDS011;4015;48.888;9.226;2023-11-19T02:45:30;2.87;;;2.00;;
7939;SDS011;4015;48.888;9.226;2023-11-19T02:47:56;3.00;;;2.37;;
7939;SDS011;4015;48.888;9.226;2023-11-19T02:50:21;2.37;;;2.17;;
7939;SDS011;4015;48.888;9.226;2023-11-19T02:52:53;3.63;;;2.37;;
7939;SDS011;4015;48.888;9.226;2023-11-19T02:55:21;4.67;;;3.67;;
7939;SDS011;4015;48.888;9.226;2023-11-19T02:57:48;3.83;;;3.43;;
7939;SDS011;4015;48.888;9.226;2023-11-19T03:00:21;6.13;;;3.30;;
7939;SDS011;4015;48.888;9.226;2023-11-19T03:03:01;3.93;;;3.63;;
7939;SDS011;4015;48.888;9.226;2023-11-19T03:05:45;5.10;;;3.70;;
7939;SDS011;4015;48.888;9.226;2023-11-19T03:08:11;3.67;;;3.33;;
7939;SDS011;4015;48.888;9.226;2023-11-19T03:10:37;3.97;;;3.53;;
7939;SDS011;4015;48.888;9.226;2023-11-19T03:13:03;5.93;;;3.50;;
7939;SDS011;4015;48.888;9.226;2023-11-19T03:15:29;3.43;;;2.67;;
7939;SDS011;4015;48.888;9.226;2023-11-19T03:17:54;4.90;;;3.33;;
7939;SDS011;4015;48.888;9.226;2023-11-19T03:20:20;3.47;;;3.17;;
7939;SDS011;4015;48.888;9.226;2023-11-19T03:22:46;5.10;;;3.63;;
7939;SDS011;4015;48.888;9.226;2023-11-19T03:25:11;3.30;;;3.00;;
7939;SDS011;4015;48.888;9.226;2023-11-19T03:27:37;3.80;;;3.40;;
7939;SDS011;4015;48.888;9.226;2023-11-19T03:30:04;3.53;;;3.23;;
7939;SDS011;4015;48.888;9.226;2023-11-19T03:32:34;3.03;;;2.83;;
7939;SDS011;4015;48.888;9.226;2023-11-19T03:35:00;3.00;;;2.70;;
7939;SDS011;4015;48.888;9.226;2023-11-19T03:37:26;3.30;;;3.00;;
7939;SDS011;4015;48.888;9.226;2023-11-19T03:39:53;4.17;;;3.77;;
7939;SDS011;4015;48.888;9.226;2023-11-19T03:42:20;5.77;;;4.87;;
7939;SDS011;4015;48.888;9.226;2023-11-19T03:44:48;58.53;;;8.03;;
7939;SDS011;4015;48.888;9.226;2023-11-19T03:47:14;62.37;;;8.90;;
7939;SDS011;4015;48.888;9.226;2023-11-19T03:49:40;40.93;;;7.77;;
7939;SDS011;4015;48.888;9.226;2023-11-19T03:52:05;40.73;;;7.37;;
7939;SDS011;4015;48.888;9.226;2023-11-19T03:54:30;68.97;;;7.13;;
7939;SDS011;4015;48.888;9.226;2023-11-19T03:56:57;131.47;;;11.53;;
7939;SDS011;4015;48.888;9.226;2023-11-19T03:59:24;135.67;;;10.00;;
7939;SDS011;4015;48.888;9.226;2023-11-19T04:01:50;131.53;;;9.43;;
7939;SDS011;4015;48.888;9.226;2023-11-19T04:04:16;94.50;;;9.40;;
7939;SDS011;4015;48.888;9.226;2023-11-19T04:06:41;96.23;;;8.27;;
7939;SDS011;4015;48.888;9.226;2023-11-19T04:09:07;18.93;;;5.20;;
7939;SDS011;4015;48.888;9.226;2023-11-19T04:11:32;13.60;;;5.00;;
7939;SDS011;4015;48.888;9.226;2023-11-19T04:13:57;8.27;;;5.33;;
7939;SDS011;4015;48.888;9.226;2023-11-19T04:16:26;30.57;;;6.97;;
7939;SDS011;4015;48.888;9.226;2023-11-19T04:18:53;24.10;;;7.00;;
7939;SDS011;4015;48.888;9.226;2023-11-19T04:21:19;28.67;;;6.50;;
7939;SDS011;4015;48.888;9.226;2023-11-19T04:23:44;11.93;;;5.60;;
7939;SDS011;4015;48.888;9.226;2023-11-19T04:26:09;23.60;;;5.53;;
7939;SDS011;4015;48.888;9.226;2023-11-19T04:28:35;20.53;;;6.33;;
7939;SDS011;4015;48.888;9.226;2023-11-19T04:31:00;10.90;;;5.47;;
7939;SDS011;4015;48.888;9.226;2023-11-19T04:33:26;5.37;;;4.87;;
7939;SDS011;4015;48.888;9.226;2023-11-19T04:35:51;5.97;;;4.27;;
7939;SDS011;4015;48.888;9.226;2023-11-19T04:38:16;4.60;;;3.87;;
7939;SDS011;4015;48.888;9.226;2023-11-19T04:40:42;3.93;;;3.53;;
7939;SDS011;4015;48.888;9.226;2023-11-19T04:43:07;3.50;;;3.10;;
7939;SDS011;4015;48.888;9.226;2023-11-19T04:45:32;3.23;;;2.93;;
7939;SDS011;4015;48.888;9.226;2023-11-19T04:47:58;3.80;;;3.40;;
7939;SDS011;4015;48.888;9.226;2023-11-19T04:50:23;2.90;;;2.50;;
7939;SDS011;4015;48.888;9.226;2023-11-19T04:52:50;3.07;;;1.90;;
7939;SDS011;4015;48.888;9.226;2023-11-19T04:55:16;2.17;;;1.87;;
7939;SDS011;4015;48.888;9.226;2023-11-19T04:57:41;1.90;;;1.70;;
7939;SDS011;4015;48.888;9.226;2023-11-19T05:00:08;3.20;;;2.40;;
7939;SDS011;4015;48.888;9.226;2023-11-19T05:02:36;2.60;;;2.23;;
7939;SDS011;4015;48.888;9.226;2023-11-19T05:05:02;2.33;;;2.00;;
7939;SDS011;4015;48.888;9.226;2023-11-19T05:07:29;1.90;;;1.60;;
7939;SDS011;4015;48.888;9.226;2023-11-19T05:09:54;3.37;;;1.77;;
7939;SDS011;4015;48.888;9.226;2023-11-19T05:12:20;1.40;;;1.30;;
7939;SDS011;4015;48.888;9.226;2023-11-19T05:14:45;1.50;;;1.40;;
7939;SDS011;4015;48.888;9.226;2023-11-19T05:17:14;2.07;;;1.80;;
7939;SDS011;4015;48.888;9.226;2023-11-19T05:19:40;1.63;;;1.47;;
7939;SDS011;4015;48.888;9.226;2023-11-19T05:22:05;2.40;;;1.50;;
7939;SDS011;4015;48.888;9.226;2023-11-19T05:24:32;1.43;;;1.33;;
7939;SDS011;4015;48.888;9.226;2023-11-19T05:26:58;2.03;;;1.67;;
7939;SDS011;4015;48.888;9.226;2023-11-19T05:29:23;1.50;;;1.40;;
7939;SDS011;4015;48.888;9.226;2023-11-19T05:31:49;3.13;;;1.50;;
7939;SDS011;4015;48.888;9.226;2023-11-19T05:34:14;1.67;;;1.57;;
7939;SDS011;4015;48.888;9.226;2023-11-19T05:36:40;1.30;;;1.20;;
7939;SDS011;4015;48.888;9.226;2023-11-19T05:39:05;2.43;;;1.00;;
7939;SDS011;4015;48.888;9.226;2023-11-19T05:41:31;1.73;;;1.30;;
7939;SDS011;4015;48.888;9.226;2023-11-19T05:43:56;1.30;;;1.00;;
7939;SDS011;4015;48.888;9.226;2023-11-19T05:46:21;2.20;;;1.20;;
7939;SDS011;4015;48.888;9.226;2023-11-19T05:48:47;3.30;;;1.30;;
7939;SDS011;4015;48.888;9.226;2023-11-19T05:51:13;0.97;;;0.90;;
7939;SDS011;4015;48.888;9.226;2023-11-19T05:53:40;2.07;;;1.40;;
7939;SDS011;4015;48.888;9.226;2023-11-19T05:56:06;1.00;;;0.90;;
7939;SDS011;4015;48.888;9.226;2023-11-19T05:58:34;0.60;;;0.60;;
7939;SDS011;4015;48.888;9.226;2023-11-19T06:01:01;0.60;;;0.60;;
7939;SDS011;4015;48.888;9.226;2023-11-19T06:03:27;0.77;;;0.77;;
7939;SDS011;4015;48.888;9.226;2023-11-19T06:05:53;0.67;;;0.67;;
7939;SDS011;4015;48.888;9.226;2023-11-19T06:08:19;1.00;;;0.70;;
7939;SDS011;4015;48.888;9.226;2023-11-19T06:10:45;0.73;;;0.70;;
7939;SDS011;4015;48.888;9.226;2023-11-19T06:13:14;0.60;;;0.57;;
7939;SDS011;4015;48.888;9.226;2023-11-19T06:15:43;0.60;;;0.60;;
7939;SDS011;4015;48.888;9.226;2023-11-19T06:18:09;0.67;;;0.67;;
7939;SDS011;4015;48.888;9.226;2023-11-19T06:20:36;0.70;;;0.60;;
7939;SDS011;4015;48.888;9.226;2023-11-19T06:23:02;1.50;;;0.80;;
7939;SDS011;4015;48.888;9.226;2023-11-19T06:25:27;0.60;;;0.60;;
7939;SDS011;4015;48.888;9.226;2023-11-19T06:27:52;0.70;;;0.60;;
7939;SDS011;4015;48.888;9.226;2023-11-19T06:30:18;0.60;;;0.60;;
7939;SDS011;4015;48.888;9.226;2023-11-19T06:32:44;0.60;;;0.60;;
7939;SDS011;4015;48.888;9.226;2023-11-19T06:35:10;2.40;;;0.80;;
7939;SDS011;4015;48.888;9.226;2023-11-19T06:37:35;1.10;;;0.60;;
7939;SDS011;4015;48.888;9.226;2023-11-19T06:40:03;0.60;;;0.60;;
7939;SDS011;4015;48.888;9.226;2023-11-19T06:42:30;0.57;;;0.53;;
7939;SDS011;4015;48.888;9.226;2023-11-19T06:44:55;0.63;;;0.60;;
7939;SDS011;4015;48.888;9.226;2023-11-19T06:47:22;0.60;;;0.60;;
7939;SDS011;4015;48.888;9.226;2023-11-19T06:49:47;0.83;;;0.70;;
7939;SDS011;4015;48.888;9.226;2023-11-19T06:52:13;4.30;;;0.70;;
7939;SDS011;4015;48.888;9.226;2023-11-19T06:54:39;2.30;;;0.70;;
7939;SDS011;4015;48.888;9.226;2023-11-19T06:57:04;0.73;;;0.67;;
7939;SDS011;4015;48.888;9.226;2023-11-19T06:59:30;0.60;;;0.60;;
7939;SDS011;4015;48.888;9.226;2023-11-19T07:01:55;0.90;;;0.60;;
7939;SDS011;4015;48.888;9.226;2023-11-19T07:04:21;4.83;;;0.80;;
7939;SDS011;4015;48.888;9.226;2023-11-19T07:06:47;1.40;;;0.70;;
7939;SDS011;4015;48.888;9.226;2023-11-19T07:09:13;3.03;;;0.60;;
7939;SDS011;4015;48.888;9.226;2023-11-19T07:11:39;0.80;;;0.80;;
7939;SDS011;4015;48.888;9.226;2023-11-19T07:14:05;0.50;;;0.50;;
7939;SDS011;4015;48.888;9.226;2023-11-19T07:16:32;4.03;;;0.87;;
7939;SDS011;4015;48.888;9.226;2023-11-19T07:18:59;0.77;;;0.60;;
7939;SDS011;4015;48.888;9.226;2023-11-19T07:21:25;0.80;;;0.70;;
7939;SDS011;4015;48.888;9.226;2023-11-19T07:23:50;1.00;;;0.70;;
7939;SDS011;4015;48.888;9.226;2023-11-19T07:26:16;1.10;;;1.00;;
7939;SDS011;4015;48.888;9.226;2023-11-19T07:28:42;2.53;;;1.37;;
7939;SDS011;4015;48.888;9.226;2023-11-19T07:31:10;1.43;;;0.70;;
7939;SDS011;4015;48.888;9.226;2023-11-19T07:33:35;1.73;;;0.80;;
7939;SDS011;4015;48.888;9.226;2023-11-19T07:36:01;2.17;;;0.63;;
7939;SDS011;4015;48.888;9.226;2023-11-19T07:38:26;1.53;;;0.60;;
7939;SDS011;4015;48.888;9.226;2023-11-19T07:40:51;0.80;;;0.60;;
7939;SDS011;4015;48.888;9.226;2023-11-19T07:43:17;0.83;;;0.50;;
7939;SDS011;4015;48.888;9.226;2023-11-19T07:45:42;1.17;;;0.80;;
7939;SDS011;4015;48.888;9.226;2023-11-19T07:48:09;0.63;;;0.53;;
7939;SDS011;4015;48.888;9.226;2023-11-19T07:50:36;1.20;;;0.73;;
7939;SDS011;4015;48.888;9.226;2023-11-19T07:53:01;0.63;;;0.60;;
7939;SDS011;4015;48.888;9.226;2023-11-19T07:55:29;0.60;;;0.60;;
7939;SDS011;4015;48.888;9.226;2023-11-19T07:57:54;3.67;;;0.70;;
7939;SDS011;4015;48.888;9.226;2023-11-19T08:00:19;1.50;;;0.50;;
7939;SDS011;4015;48.888;9.226;2023-11-19T08:02:45;4.17;;;1.30;;
7939;SDS011;4015;48.888;9.226;2023-11-19T08:05:10;2.40;;;0.70;;
7939;SDS011;4015;48.888;9.226;2023-11-19T08:07:36;0.87;;;0.87;;
7939;SDS011;4015;48.888;9.226;2023-11-19T08:10:02;10.03;;;7.20;;
7939;SDS011;4015;48.888;9.226;2023-11-19T08:12:27;0.80;;;0.80;;
7939;SDS011;4015;48.888;9.226;2023-11-19T08:14:52;1.60;;;0.70;;
7939;SDS011;4015;48.888;9.226;2023-11-19T08:17:18;0.80;;;0.70;;
7939;SDS011;4015;48.888;9.226;2023-11-19T08:19:43;0.80;;;0.70;;
7939;SDS011;4015;48.888;9.226;2023-11-19T08:22:08;0.60;;;0.60;;
7939;SDS011;4015;48.888;9.226;2023-11-19T08:24:34;3.00;;;1.00;;
7939;SDS011;4015;48.888;9.226;2023-11-19T08:27:00;0.70;;;0.70;;
7939;SDS011;4015;48.888;9.226;2023-11-19T08:29:25;0.77;;;0.70;;
7939;SDS011;4015;48.888;9.226;2023-11-19T08:31:50;1.73;;;0.60;;
7939;SDS011;4015;48.888;9.226;2023-11-19T08:34:15;4.20;;;0.90;;
7939;SDS011;4015;48.888;9.226;2023-11-19T08:36:41;0.67;;;0.60;;
7939;SDS011;4015;48.888;9.226;2023-11-19T08:39:06;1.87;;;0.80;;
7939;SDS011;4015;48.888;9.226;2023-11-19T08:41:33;0.97;;;0.87;;
7939;SDS011;4015;48.888;9.226;2023-11-19T08:43:59;1.17;;;0.60;;
7939;SDS011;4015;48.888;9.226;2023-11-19T08:46:24;1.43;;;0.60;;
7939;SDS011;4015;48.888;9.226;2023-11-19T08:48:51;1.47;;;1.13;;
7939;SDS011;4015;48.888;9.226;2023-11-19T08:51:16;0.70;;;0.60;;
7939;SDS011;4015;48.888;9.226;2023-11-19T08:53:41;1.97;;;0.83;;
7939;SDS011;4015;48.888;9.226;2023-11-19T08:56:07;1.13;;;0.90;;
7939;SDS011;4015;48.888;9.226;2023-11-19T08:58:32;0.73;;;0.67;;
7939;SDS011;4015;48.888;9.226;2023-11-19T09:00:58;0.70;;;0.70;;
7939;SDS011;4015;48.888;9.226;2023-11-19T09:03:23;2.70;;;0.70;;
7939;SDS011;4015;48.888;9.226;2023-11-19T09:05:51;2.97;;;1.10;;
7939;SDS011;4015;48.888;9.226;2023-11-19T09:08:16;1.57;;;0.90;;
7939;SDS011;4015;48.888;9.226;2023-11-19T09:10:42;2.43;;;0.70;;
7939;SDS011;4015;48.888;9.226;2023-11-19T09:13:07;1.70;;;0.60;;
7939;SDS011;4015;48.888;9.226;2023-11-19T09:15:32;0.82;;;0.65;;
7939;SDS011;4015;48.888;9.226;2023-11-19T09:17:58;1.35;;;0.60;;
7939;SDS011;4015;48.888;9.226;2023-11-19T09:20:23;0.57;;;0.57;;
7939;SDS011;4015;48.888;9.226;2023-11-19T09:22:49;1.15;;;0.80;;
7939;SDS011;4015;48.888;9.226;2023-11-19T09:25:14;1.05;;;0.70;;
7939;SDS011;4015;48.888;9.226;2023-11-19T09:27:43;9.88;;;7.20;;
7939;SDS011;4015;48.888;9.226;2023-11-19T09:30:09;2.00;;;1.00;;
7939;SDS011;4015;48.888;9.226;2023-11-19T09:32:34;14.33;;;8.53;;
7939;SDS011;4015;48.888;9.226;2023-11-19T09:35:00;1.37;;;0.90;;
7939;SDS011;4015;48.888;9.226;2023-11-19T09:37:25;1.33;;;0.60;;
7939;SDS011;4015;48.888;9.226;2023-11-19T09:39:51;2.10;;;1.00;;
7939;SDS011;4015;48.888;9.226;2023-11-19T09:42:18;1.37;;;0.67;;
7939;SDS011;4015;48.888;9.226;2023-11-19T09:44:45;3.90;;;0.70;;
7939;SDS011;4015;48.888;9.226;2023-11-19T09:47:19;1.43;;;0.93;;
7939;SDS011;4015;48.888;9.226;2023-11-19T09:49:45;1.70;;;1.00;;
7939;SDS011;4015;48.888;9.226;2023-11-19T09:52:11;2.13;;;1.07;;
7939;SDS011;4015;48.888;9.226;2023-11-19T09:54:36;5.50;;;1.17;;
7939;SDS011;4015;48.888;9.226;2023-11-19T09:57:01;2.90;;;0.80;;
7939;SDS011;4015;48.888;9.226;2023-11-19T09:59:31;0.83;;;0.70;;
7939;SDS011;4015;48.888;9.226;2023-11-19T10:01:56;2.63;;;0.90;;
7939;SDS011;4015;48.888;9.226;2023-11-19T10:04:22;2.40;;;1.00;;
7939;SDS011;4015;48.888;9.226;2023-11-19T10:06:49;48.30;;;32.28;;
7939;SDS011;4015;48.888;9.226;2023-11-19T10:09:16;4.68;;;3.08;;
7939;SDS011;4015;48.888;9.226;2023-11-19T10:11:41;1.88;;;1.10;;
7939;SDS011;4015;48.888;9.226;2023-11-19T10:14:07;2.17;;;0.80;;
7939;SDS011;4015;48.888;9.226;2023-11-19T10:16:34;2.20;;;0.95;;
7939;SDS011;4015;48.888;9.226;2023-11-19T10:18:59;2.13;;;0.98;;
7939;SDS011;4015;48.888;9.226;2023-11-19T10:21:25;2.85;;;0.70;;
7939;SDS011;4015;48.888;9.226;2023-11-19T10:26:21;2.33;;;0.80;;
7939;SDS011;4015;48.888;9.226;2023-11-19T10:28:47;0.88;;;0.70;;
7939;SDS011;4015;48.888;9.226;2023-11-19T10:31:14;0.95;;;0.68;;
7939;SDS011;4015;48.888;9.226;2023-11-19T10:33:43;4.15;;;0.95;;
7939;SDS011;4015;48.888;9.226;2023-11-19T10:36:10;1.25;;;0.90;;
7939;SDS011;4015;48.888;9.226;2023-11-19T10:38:37;1.13;;;0.88;;
7939;SDS011;4015;48.888;9.226;2023-11-19T10:41:03;1.93;;;0.70;;
7939;SDS011;4015;48.888;9.226;2023-11-19T10:43:30;2.25;;;0.70;;
7939;SDS011;4015;48.888;9.226;2023-11-19T10:46:17;1.98;;;0.70;;
7939;SDS011;4015;48.888;9.226;2023-11-19T10:48:45;2.78;;;0.65;;
7939;SDS011;4015;48.888;9.226;2023-11-19T10:51:11;1.58;;;0.60;;
7939;SDS011;4015;48.888;9.226;2023-11-19T10:53:46;1.58;;;0.65;;
7939;SDS011;4015;48.888;9.226;2023-11-19T10:56:14;0.60;;;0.50;;
7939;SDS011;4015;48.888;9.226;2023-11-19T10:58:44;2.10;;;0.80;;
7939;SDS011;4015;48.888;9.226;2023-11-19T11:01:16;2.97;;;1.38;;
7939;SDS011;4015;48.888;9.226;2023-11-19T11:03:47;1.33;;;0.55;;
7939;SDS011;4015;48.888;9.226;2023-11-19T11:06:16;2.00;;;0.93;;
7939;SDS011;4015;48.888;9.226;2023-11-19T11:08:43;1.00;;;0.77;;
7939;SDS011;4015;48.888;9.226;2023-11-19T11:11:19;0.95;;;0.60;;
7939;SDS011;4015;48.888;9.226;2023-11-19T11:13:49;2.08;;;0.80;;
7939;SDS011;4015;48.888;9.226;2023-11-19T11:16:15;0.90;;;0.70;;
7939;SDS011;4015;48.888;9.226;2023-11-19T11:18:43;2.22;;;0.60;;
7939;SDS011;4015;48.888;9.226;2023-11-19T11:21:14;1.25;;;0.68;;
7939;SDS011;4015;48.888;9.226;2023-11-19T11:26:41;0.77;;;0.70;;
7939;SDS011;4015;48.888;9.226;2023-11-19T11:29:14;1.65;;;0.77;;
7939;SDS011;4015;48.888;9.226;2023-11-19T11:39:33;1.65;;;0.82;;
7939;SDS011;4015;48.888;9.226;2023-11-19T11:44:57;2.83;;;1.88;;
7939;SDS011;4015;48.888;9.226;2023-11-19T11:47:23;2.95;;;1.20;;
7939;SDS011;4015;48.888;9.226;2023-11-19T11:49:48;2.42;;;1.17;;
7939;SDS011;4015;48.888;9.226;2023-11-19T11:52:16;1.20;;;0.70;;
7939;SDS011;4015;48.888;9.226;2023-11-19T11:54:42;4.05;;;1.42;;
7939;SDS011;4015;48.888;9.226;2023-11-19T12:02:09;4.85;;;1.02;;
7939;SDS011;4015;48.888;9.226;2023-11-19T12:04:37;0.65;;;0.57;;
7939;SDS011;4015;48.888;9.226;2023-11-19T12:07:03;4.13;;;1.23;;
7939;SDS011;4015;48.888;9.226;2023-11-19T12:09:41;0.90;;;0.63;;
7939;SDS011;4015;48.888;9.226;2023-11-19T12:19:58;2.00;;;1.00;;
7939;SDS011;4015;48.888;9.226;2023-11-19T12:22:27;2.30;;;0.70;;
7939;SDS011;4015;48.888;9.226;2023-11-19T12:24:53;2.67;;;0.90;;
7939;SDS011;4015;48.888;9.226;2023-11-19T12:27:19;1.45;;;0.77;;
7939;SDS011;4015;48.888;9.226;2023-11-19T12:29:47;1.75;;;0.82;;
7939;SDS011;4015;48.888;9.226;2023-11-19T12:32:13;1.92;;;0.80;;
7939;SDS011;4015;48.888;9.226;2023-11-19T12:34:38;1.45;;;0.90;;
7939;SDS011;4015;48.888;9.226;2023-11-19T12:37:04;1.23;;;0.70;;
7939;SDS011;4015;48.888;9.226;2023-11-19T12:39:30;1.25;;;0.60;;
7939;SDS011;4015;48.888;9.226;2023-11-19T12:41:55;1.38;;;0.82;;
7939;SDS011;4015;48.888;9.226;2023-11-19T12:44:24;1.20;;;0.90;;
7939;SDS011;4015;48.888;9.226;2023-11-19T12:46:59;0.93;;;0.70;;
7939;SDS011;4015;48.888;9.226;2023-11-19T12:49:26;1.80;;;0.70;;
7939;SDS011;4015;48.888;9.226;2023-11-19T12:51:51;2.13;;;1.27;;
7939;SDS011;4015;48.888;9.226;2023-11-19T12:54:16;37.85;;;29.17;;
7939;SDS011;4015;48.888;9.226;2023-11-19T12:56:52;1.67;;;0.90;;
7939;SDS011;4015;48.888;9.226;2023-11-19T12:59:18;4.38;;;0.75;;
7939;SDS011;4015;48.888;9.226;2023-11-19T13:01:59;2.03;;;0.70;;
7939;SDS011;4015;48.888;9.226;2023-11-19T13:04:28;1.23;;;0.93;;
7939;SDS011;4015;48.888;9.226;2023-11-19T13:06:58;1.13;;;0.88;;
7939;SDS011;4015;48.888;9.226;2023-11-19T13:09:24;1.02;;;0.80;;
7939;SDS011;4015;48.888;9.226;2023-11-19T13:11:54;1.00;;;0.70;;
7939;SDS011;4015;48.888;9.226;2023-11-19T13:14:21;2.88;;;0.70;;
7939;SDS011;4015;48.888;9.226;2023-11-19T13:16:47;1.55;;;0.85;;
7939;SDS011;4015;48.888;9.226;2023-11-19T13:19:13;1.85;;;0.77;;
7939;SDS011;4015;48.888;9.226;2023-11-19T13:21:39;1.55;;;1.13;;
7939;SDS011;4015;48.888;9.226;2023-11-19T13:24:07;2.17;;;0.80;;
7939;SDS011;4015;48.888;9.226;2023-11-19T13:26:33;3.40;;;0.73;;
7939;SDS011;4015;48.888;9.226;2023-11-19T13:28:59;2.38;;;0.70;;
7939;SDS011;4015;48.888;9.226;2023-11-19T13:31:25;5.68;;;1.42;;
7939;SDS011;4015;48.888;9.226;2023-11-19T13:33:51;1.70;;;0.80;;
7939;SDS011;4015;48.888;9.226;2023-11-19T13:36:16;2.08;;;0.88;;
7939;SDS011;4015;48.888;9.226;2023-11-19T13:38:41;1.80;;;0.82;;
7939;SDS011;4015;48.888;9.226;2023-11-19T13:41:09;1.50;;;0.70;;
7939;SDS011;4015;48.888;9.226;2023-11-19T13:43:35;0.98;;;0.85;;
7939;SDS011;4015;48.888;9.226;2023-11-19T13:46:01;2.67;;;0.80;;
7939;SDS011;4015;48.888;9.226;2023-11-19T13:48:27;0.85;;;0.80;;
7939;SDS011;4015;48.888;9.226;2023-11-19T13:50:54;1.50;;;1.00;;
7939;SDS011;4015;48.888;9.226;2023-11-19T13:53:19;2.58;;;0.90;;
7939;SDS011;4015;48.888;9.226;2023-11-19T13:55:45;2.45;;;0.85;;
7939;SDS011;4015;48.888;9.226;2023-11-19T13:58:10;2.20;;;0.80;;
7939;SDS011;4015;48.888;9.226;2023-11-19T14:00:36;3.20;;;0.90;;
7939;SDS011;4015;48.888;9.226;2023-11-19T14:03:02;1.63;;;1.02;;
7939;SDS011;4015;48.888;9.226;2023-11-19T14:05:28;1.40;;;0.75;;
7939;SDS011;4015;48.888;9.226;2023-11-19T14:07:53;1.83;;;0.80;;
7939;SDS011;4015;48.888;9.226;2023-11-19T14:10:21;2.47;;;0.70;;
7939;SDS011;4015;48.888;9.226;2023-11-19T14:12:47;0.93;;;0.60;;
7939;SDS011;4015;48.888;9.226;2023-11-19T14:15:12;3.33;;;0.87;;
7939;SDS011;4015;48.888;9.226;2023-11-19T14:17:38;2.38;;;0.77;;
7939;SDS011;4015;48.888;9.226;2023-11-19T14:20:04;2.83;;;0.80;;
7939;SDS011;4015;48.888;9.226;2023-11-19T14:22:41;5.50;;;0.88;;
7939;SDS011;4015;48.888;9.226;2023-11-19T14:25:07;2.20;;;0.90;;
7939;SDS011;4015;48.888;9.226;2023-11-19T14:27:40;1.67;;;0.88;;
7939;SDS011;4015;48.888;9.226;2023-11-19T14:30:10;3.30;;;0.80;;
7939;SDS011;4015;48.888;9.226;2023-11-19T14:32:38;1.20;;;0.80;;
7939;SDS011;4015;48.888;9.226;2023-11-19T14:35:05;1.45;;;0.82;;
7939;SDS011;4015;48.888;9.226;2023-11-19T14:37:30;1.30;;;1.00;;
7939;SDS011;4015;48.888;9.226;2023-11-19T14:39:57;1.48;;;0.88;;
7939;SDS011;4015;48.888;9.226;2023-11-19T14:42:26;2.73;;;0.73;;
7939;SDS011;4015;48.888;9.226;2023-11-19T14:44:52;1.37;;;0.87;;
7939;SDS011;4015;48.888;9.226;2023-11-19T14:47:18;2.63;;;0.97;;
7939;SDS011;4015;48.888;9.226;2023-11-19T14:49:43;1.17;;;0.70;;
7939;SDS011;4015;48.888;9.226;2023-11-19T14:52:09;1.77;;;0.90;;
7939;SDS011;4015;48.888;9.226;2023-11-19T14:54:35;1.13;;;0.90;;
7939;SDS011;4015;48.888;9.226;2023-11-19T14:57:00;1.23;;;0.80;;
7939;SDS011;4015;48.888;9.226;2023-11-19T14:59:26;2.87;;;0.90;;
7939;SDS011;4015;48.888;9.226;2023-11-19T15:01:51;1.90;;;0.97;;
7939;SDS011;4015;48.888;9.226;2023-11-19T15:04:16;1.03;;;0.70;;
7939;SDS011;4015;48.888;9.226;2023-11-19T15:06:42;1.23;;;0.80;;
7939;SDS011;4015;48.888;9.226;2023-11-19T15:09:08;1.60;;;0.87;;
7939;SDS011;4015;48.888;9.226;2023-11-19T15:11:34;1.67;;;1.00;;
7939;SDS011;4015;48.888;9.226;2023-11-19T15:14:00;1.77;;;0.97;;
7939;SDS011;4015;48.888;9.226;2023-11-19T15:16:25;1.07;;;0.90;;
7939;SDS011;4015;48.888;9.226;2023-11-19T15:18:56;2.10;;;1.00;;
7939;SDS011;4015;48.888;9.226;2023-11-19T15:21:24;0.80;;;0.73;;
7939;SDS011;4015;48.888;9.226;2023-11-19T15:23:54;1.00;;;0.80;;
7939;SDS011;4015;48.888;9.226;2023-11-19T15:26:20;0.97;;;0.87;;
7939;SDS011;4015;48.888;9.226;2023-11-19T15:28:46;1.47;;;0.87;;
7939;SDS011;4015;48.888;9.226;2023-11-19T15:31:11;1.20;;;0.80;;
7939;SDS011;4015;48.888;9.226;2023-11-19T15:33:36;1.53;;;0.90;;
7939;SDS011;4015;48.888;9.226;2023-11-19T15:36:02;2.33;;;0.80;;
7939;SDS011;4015;48.888;9.226;2023-11-19T15:38:32;2.23;;;0.80;;
7939;SDS011;4015;48.888;9.226;2023-11-19T15:41:01;1.27;;;0.90;;
7939;SDS011;4015;48.888;9.226;2023-11-19T15:43:27;3.20;;;0.80;;
7939;SDS011;4015;48.888;9.226;2023-11-19T15:45:53;1.10;;;0.70;;
7939;SDS011;4015;48.888;9.226;2023-11-19T15:48:18;1.70;;;1.03;;